KLNK/LNK METAR and TAF weather

Enter ICAO airport designator
Station Type Date Time Source
KLNK METAR 2020/01/27 10:54 UTC NOAA

KLNK 271054Z AUTO 33007KT 10SM OVC020 00/M03 A3002 RMK AO2 SLP175 T00001028


Station Type Date Time Source
KLNK Decoded METAR 2020/01/27 10:54 UTC NOAA

LINCOLN MUNICIPAL AIRPORT, NE, United States (KLNK) 40-50N 96-46W 364M
Jan 27, 2020 - 05:54 AM EST / 2020.01.27 1054 UTC
Wind: from the NNW (330 degrees) at 8 MPH (7 KT):0
Visibility: 10 mile(s):0
Sky conditions: overcast
Temperature: 32.0 F (0.0 C)
Windchill: 24 F (-4 C):1
Dew Point: 27.0 F (-2.8 C)
Relative Humidity: 81%
Pressure (altimeter): 30.02 in. Hg (1016 hPa)
ob: KLNK 271054Z AUTO 33007KT 10SM OVC020 00/M03 A3002 RMK AO2 SLP175 T00001028
cycle: 11

Station Type Date Time Source
KLNK TAF 2020/01/27 06:22 UTC NOAA

TAF KLNK 270520Z 2706/2806 30003KT P6SM SCT150
FM271000 32006KT P6SM BKN025
FM271200 35008KT P6SM OVC015

Example: see airport list